sensor_id;sensor_type;location;lat;lon;timestamp;P1;durP1;ratioP1;P2;durP2;ratioP2
8488;SDS011;4281;45.772;12.852;2022-12-29T00:00:59;10.90;;;9.80;;
8488;SDS011;4281;45.772;12.852;2022-12-29T00:03:27;10.50;;;9.43;;
8488;SDS011;4281;45.772;12.852;2022-12-29T00:05:57;10.97;;;9.87;;
8488;SDS011;4281;45.772;12.852;2022-12-29T00:08:25;10.20;;;8.97;;
8488;SDS011;4281;45.772;12.852;2022-12-29T00:11:06;10.77;;;9.63;;
8488;SDS011;4281;45.772;12.852;2022-12-29T00:13:34;11.00;;;9.93;;
8488;SDS011;4281;45.772;12.852;2022-12-29T00:16:20;10.37;;;9.33;;
8488;SDS011;4281;45.772;12.852;2022-12-29T00:18:47;10.63;;;9.53;;
8488;SDS011;4281;45.772;12.852;2022-12-29T00:21:18;10.60;;;9.50;;
8488;SDS011;4281;45.772;12.852;2022-12-29T00:24:05;10.47;;;9.37;;
8488;SDS011;4281;45.772;12.852;2022-12-29T00:26:53;9.93;;;8.93;;
8488;SDS011;4281;45.772;12.852;2022-12-29T00:29:40;10.23;;;9.23;;
8488;SDS011;4281;45.772;12.852;2022-12-29T00:32:26;10.13;;;9.13;;
8488;SDS011;4281;45.772;12.852;2022-12-29T00:35:11;10.20;;;9.20;;
8488;SDS011;4281;45.772;12.852;2022-12-29T00:37:45;11.77;;;9.93;;
8488;SDS011;4281;45.772;12.852;2022-12-29T00:40:32;11.37;;;10.17;;
8488;SDS011;4281;45.772;12.852;2022-12-29T00:43:17;12.17;;;10.57;;
8488;SDS011;4281;45.772;12.852;2022-12-29T00:46:02;10.93;;;9.83;;
8488;SDS011;4281;45.772;12.852;2022-12-29T00:48:30;12.27;;;10.77;;
8488;SDS011;4281;45.772;12.852;2022-12-29T00:51:12;11.97;;;10.77;;
8488;SDS011;4281;45.772;12.852;2022-12-29T00:53:41;12.00;;;10.80;;
8488;SDS011;4281;45.772;12.852;2022-12-29T00:56:09;11.80;;;10.70;;
8488;SDS011;4281;45.772;12.852;2022-12-29T00:58:37;12.20;;;11.00;;
8488;SDS011;4281;45.772;12.852;2022-12-29T01:01:05;11.80;;;10.50;;
8488;SDS011;4281;45.772;12.852;2022-12-29T01:03:35;12.93;;;10.93;;
8488;SDS011;4281;45.772;12.852;2022-12-29T01:06:04;12.47;;;11.20;;
8488;SDS011;4281;45.772;12.852;2022-12-29T01:08:33;12.27;;;10.97;;
8488;SDS011;4281;45.772;12.852;2022-12-29T01:11:04;14.27;;;12.07;;
8488;SDS011;4281;45.772;12.852;2022-12-29T01:13:33;12.63;;;11.43;;
8488;SDS011;4281;45.772;12.852;2022-12-29T01:16:01;12.57;;;10.77;;
8488;SDS011;4281;45.772;12.852;2022-12-29T01:18:30;11.87;;;10.67;;
8488;SDS011;4281;45.772;12.852;2022-12-29T01:20:58;12.20;;;11.00;;
8488;SDS011;4281;45.772;12.852;2022-12-29T01:23:27;12.70;;;11.47;;
8488;SDS011;4281;45.772;12.852;2022-12-29T01:25:56;12.80;;;11.43;;
8488;SDS011;4281;45.772;12.852;2022-12-29T01:28:25;12.53;;;11.23;;
8488;SDS011;4281;45.772;12.852;2022-12-29T01:30:53;13.00;;;11.70;;
8488;SDS011;4281;45.772;12.852;2022-12-29T01:33:20;13.43;;;11.80;;
8488;SDS011;4281;45.772;12.852;2022-12-29T01:35:48;13.90;;;12.37;;
8488;SDS011;4281;45.772;12.852;2022-12-29T01:38:16;14.47;;;12.97;;
8488;SDS011;4281;45.772;12.852;2022-12-29T01:40:44;14.17;;;12.67;;
8488;SDS011;4281;45.772;12.852;2022-12-29T01:43:12;14.50;;;13.00;;
8488;SDS011;4281;45.772;12.852;2022-12-29T01:45:44;14.40;;;13.00;;
8488;SDS011;4281;45.772;12.852;2022-12-29T01:48:13;14.50;;;12.77;;
8488;SDS011;4281;45.772;12.852;2022-12-29T01:50:42;14.07;;;12.67;;
8488;SDS011;4281;45.772;12.852;2022-12-29T01:53:11;15.33;;;13.73;;
8488;SDS011;4281;45.772;12.852;2022-12-29T01:55:44;15.03;;;13.53;;
8488;SDS011;4281;45.772;12.852;2022-12-29T01:58:15;15.07;;;13.47;;
8488;SDS011;4281;45.772;12.852;2022-12-29T02:00:48;15.37;;;13.17;;
8488;SDS011;4281;45.772;12.852;2022-12-29T02:03:16;17.13;;;15.33;;
8488;SDS011;4281;45.772;12.852;2022-12-29T02:05:46;15.27;;;13.63;;
8488;SDS011;4281;45.772;12.852;2022-12-29T02:08:16;15.73;;;14.13;;
8488;SDS011;4281;45.772;12.852;2022-12-29T02:10:44;15.70;;;14.00;;
8488;SDS011;4281;45.772;12.852;2022-12-29T02:13:14;15.53;;;13.77;;
8488;SDS011;4281;45.772;12.852;2022-12-29T02:15:47;15.13;;;13.53;;
8488;SDS011;4281;45.772;12.852;2022-12-29T02:18:25;14.00;;;12.60;;
8488;SDS011;4281;45.772;12.852;2022-12-29T02:24:00;14.70;;;13.20;;
8488;SDS011;4281;45.772;12.852;2022-12-29T02:26:44;14.87;;;12.43;;
8488;SDS011;4281;45.772;12.852;2022-12-29T02:29:31;16.40;;;14.70;;
8488;SDS011;4281;45.772;12.852;2022-12-29T02:32:09;14.53;;;12.77;;
8488;SDS011;4281;45.772;12.852;2022-12-29T02:34:41;14.33;;;12.73;;
8488;SDS011;4281;45.772;12.852;2022-12-29T02:37:17;14.07;;;12.57;;
8488;SDS011;4281;45.772;12.852;2022-12-29T02:39:50;14.70;;;13.13;;
8488;SDS011;4281;45.772;12.852;2022-12-29T02:42:22;15.10;;;13.50;;
8488;SDS011;4281;45.772;12.852;2022-12-29T02:44:54;13.83;;;12.43;;
8488;SDS011;4281;45.772;12.852;2022-12-29T02:47:26;13.87;;;12.47;;
8488;SDS011;4281;45.772;12.852;2022-12-29T02:49:58;13.03;;;11.73;;
8488;SDS011;4281;45.772;12.852;2022-12-29T02:52:30;14.00;;;12.03;;
8488;SDS011;4281;45.772;12.852;2022-12-29T02:55:01;13.33;;;11.93;;
8488;SDS011;4281;45.772;12.852;2022-12-29T02:57:29;14.10;;;12.43;;
8488;SDS011;4281;45.772;12.852;2022-12-29T03:00:01;13.53;;;12.13;;
8488;SDS011;4281;45.772;12.852;2022-12-29T03:02:39;14.03;;;12.63;;
8488;SDS011;4281;45.772;12.852;2022-12-29T03:05:31;13.70;;;12.30;;
8488;SDS011;4281;45.772;12.852;2022-12-29T03:08:10;13.60;;;12.20;;
8488;SDS011;4281;45.772;12.852;2022-12-29T03:10:50;13.97;;;12.47;;
8488;SDS011;4281;45.772;12.852;2022-12-29T03:13:23;13.47;;;12.07;;
8488;SDS011;4281;45.772;12.852;2022-12-29T03:16:14;13.50;;;11.93;;
8488;SDS011;4281;45.772;12.852;2022-12-29T03:18:51;13.73;;;12.43;;
8488;SDS011;4281;45.772;12.852;2022-12-29T03:21:24;14.00;;;12.53;;
8488;SDS011;4281;45.772;12.852;2022-12-29T03:24:10;13.80;;;12.30;;
8488;SDS011;4281;45.772;12.852;2022-12-29T03:26:40;13.87;;;12.43;;
8488;SDS011;4281;45.772;12.852;2022-12-29T03:29:09;13.90;;;12.50;;
8488;SDS011;4281;45.772;12.852;2022-12-29T03:31:40;14.23;;;12.73;;
8488;SDS011;4281;45.772;12.852;2022-12-29T03:34:11;14.07;;;12.63;;
8488;SDS011;4281;45.772;12.852;2022-12-29T03:36:40;13.87;;;12.47;;
8488;SDS011;4281;45.772;12.852;2022-12-29T03:39:11;14.43;;;13.00;;
8488;SDS011;4281;45.772;12.852;2022-12-29T03:41:40;13.80;;;12.37;;
8488;SDS011;4281;45.772;12.852;2022-12-29T03:44:09;15.00;;;13.57;;
8488;SDS011;4281;45.772;12.852;2022-12-29T03:46:37;14.03;;;12.60;;
8488;SDS011;4281;45.772;12.852;2022-12-29T03:49:05;15.30;;;13.67;;
8488;SDS011;4281;45.772;12.852;2022-12-29T03:51:34;14.70;;;13.27;;
8488;SDS011;4281;45.772;12.852;2022-12-29T03:54:02;14.40;;;12.90;;
8488;SDS011;4281;45.772;12.852;2022-12-29T03:56:30;14.37;;;12.90;;
8488;SDS011;4281;45.772;12.852;2022-12-29T03:58:58;15.43;;;13.83;;
8488;SDS011;4281;45.772;12.852;2022-12-29T04:01:25;14.57;;;13.07;;
8488;SDS011;4281;45.772;12.852;2022-12-29T04:03:53;14.67;;;12.87;;
8488;SDS011;4281;45.772;12.852;2022-12-29T04:06:21;14.40;;;12.73;;
8488;SDS011;4281;45.772;12.852;2022-12-29T04:08:52;17.17;;;13.97;;
8488;SDS011;4281;45.772;12.852;2022-12-29T04:11:20;16.47;;;14.07;;
8488;SDS011;4281;45.772;12.852;2022-12-29T04:13:53;15.50;;;13.90;;
8488;SDS011;4281;45.772;12.852;2022-12-29T04:16:21;16.77;;;14.37;;
8488;SDS011;4281;45.772;12.852;2022-12-29T04:18:51;14.90;;;13.37;;
8488;SDS011;4281;45.772;12.852;2022-12-29T04:21:19;15.77;;;13.97;;
8488;SDS011;4281;45.772;12.852;2022-12-29T04:23:46;15.87;;;13.77;;
8488;SDS011;4281;45.772;12.852;2022-12-29T04:26:15;15.80;;;13.93;;
8488;SDS011;4281;45.772;12.852;2022-12-29T04:28:43;16.73;;;14.53;;
8488;SDS011;4281;45.772;12.852;2022-12-29T04:31:11;18.43;;;16.33;;
8488;SDS011;4281;45.772;12.852;2022-12-29T04:33:39;17.60;;;14.40;;
8488;SDS011;4281;45.772;12.852;2022-12-29T04:36:08;16.37;;;14.67;;
8488;SDS011;4281;45.772;12.852;2022-12-29T04:38:36;16.07;;;14.40;;
8488;SDS011;4281;45.772;12.852;2022-12-29T04:41:04;17.07;;;14.83;;
8488;SDS011;4281;45.772;12.852;2022-12-29T04:43:33;15.97;;;13.93;;
8488;SDS011;4281;45.772;12.852;2022-12-29T04:46:01;16.23;;;14.53;;
8488;SDS011;4281;45.772;12.852;2022-12-29T04:48:29;15.60;;;14.00;;
8488;SDS011;4281;45.772;12.852;2022-12-29T04:50:57;16.07;;;14.37;;
8488;SDS011;4281;45.772;12.852;2022-12-29T04:53:25;15.90;;;14.17;;
8488;SDS011;4281;45.772;12.852;2022-12-29T04:55:57;16.17;;;14.47;;
8488;SDS011;4281;45.772;12.852;2022-12-29T04:58:24;16.70;;;14.90;;
8488;SDS011;4281;45.772;12.852;2022-12-29T05:00:53;16.33;;;14.53;;
8488;SDS011;4281;45.772;12.852;2022-12-29T05:03:21;16.23;;;14.53;;
8488;SDS011;4281;45.772;12.852;2022-12-29T05:05:49;15.97;;;14.37;;
8488;SDS011;4281;45.772;12.852;2022-12-29T05:08:22;18.80;;;14.73;;
8488;SDS011;4281;45.772;12.852;2022-12-29T05:10:53;16.97;;;15.20;;
8488;SDS011;4281;45.772;12.852;2022-12-29T05:13:21;15.87;;;14.17;;
8488;SDS011;4281;45.772;12.852;2022-12-29T05:15:49;17.60;;;15.73;;
8488;SDS011;4281;45.772;12.852;2022-12-29T05:18:19;17.03;;;15.00;;
8488;SDS011;4281;45.772;12.852;2022-12-29T05:20:47;17.23;;;15.33;;
8488;SDS011;4281;45.772;12.852;2022-12-29T05:23:15;17.87;;;15.37;;
8488;SDS011;4281;45.772;12.852;2022-12-29T05:25:44;17.40;;;15.57;;
8488;SDS011;4281;45.772;12.852;2022-12-29T05:28:12;17.80;;;15.53;;
8488;SDS011;4281;45.772;12.852;2022-12-29T05:30:40;17.80;;;15.80;;
8488;SDS011;4281;45.772;12.852;2022-12-29T05:33:08;19.37;;;17.37;;
8488;SDS011;4281;45.772;12.852;2022-12-29T05:35:39;19.83;;;17.57;;
8488;SDS011;4281;45.772;12.852;2022-12-29T05:38:07;19.17;;;17.17;;
8488;SDS011;4281;45.772;12.852;2022-12-29T05:40:34;19.53;;;16.83;;
8488;SDS011;4281;45.772;12.852;2022-12-29T05:43:02;18.93;;;16.93;;
8488;SDS011;4281;45.772;12.852;2022-12-29T05:45:32;21.00;;;17.77;;
8488;SDS011;4281;45.772;12.852;2022-12-29T05:48:00;19.43;;;17.03;;
8488;SDS011;4281;45.772;12.852;2022-12-29T05:50:28;18.90;;;16.77;;
8488;SDS011;4281;45.772;12.852;2022-12-29T05:52:57;18.30;;;16.27;;
8488;SDS011;4281;45.772;12.852;2022-12-29T05:55:25;19.07;;;17.07;;
8488;SDS011;4281;45.772;12.852;2022-12-29T05:57:53;20.63;;;18.43;;
8488;SDS011;4281;45.772;12.852;2022-12-29T06:00:21;20.43;;;18.13;;
8488;SDS011;4281;45.772;12.852;2022-12-29T06:02:49;19.20;;;16.53;;
8488;SDS011;4281;45.772;12.852;2022-12-29T06:05:17;21.97;;;18.47;;
8488;SDS011;4281;45.772;12.852;2022-12-29T06:07:45;20.70;;;17.67;;
8488;SDS011;4281;45.772;12.852;2022-12-29T06:10:15;21.27;;;18.90;;
8488;SDS011;4281;45.772;12.852;2022-12-29T06:12:43;21.57;;;17.93;;
8488;SDS011;4281;45.772;12.852;2022-12-29T06:15:10;20.30;;;17.67;;
8488;SDS011;4281;45.772;12.852;2022-12-29T06:17:38;20.53;;;17.70;;
8488;SDS011;4281;45.772;12.852;2022-12-29T06:20:07;18.63;;;16.30;;
8488;SDS011;4281;45.772;12.852;2022-12-29T06:22:36;20.00;;;17.90;;
8488;SDS011;4281;45.772;12.852;2022-12-29T06:25:05;20.80;;;17.37;;
8488;SDS011;4281;45.772;12.852;2022-12-29T06:27:35;19.60;;;17.50;;
8488;SDS011;4281;45.772;12.852;2022-12-29T06:30:03;18.70;;;16.70;;
8488;SDS011;4281;45.772;12.852;2022-12-29T06:32:31;19.07;;;17.03;;
8488;SDS011;4281;45.772;12.852;2022-12-29T06:35:00;20.40;;;17.07;;
8488;SDS011;4281;45.772;12.852;2022-12-29T06:37:30;18.70;;;16.70;;
8488;SDS011;4281;45.772;12.852;2022-12-29T06:39:58;20.73;;;17.83;;
8488;SDS011;4281;45.772;12.852;2022-12-29T06:42:25;22.27;;;18.90;;
8488;SDS011;4281;45.772;12.852;2022-12-29T06:44:55;22.03;;;18.07;;
8488;SDS011;4281;45.772;12.852;2022-12-29T06:47:24;20.90;;;18.57;;
8488;SDS011;4281;45.772;12.852;2022-12-29T06:49:52;20.13;;;18.03;;
8488;SDS011;4281;45.772;12.852;2022-12-29T06:52:20;20.13;;;17.87;;
8488;SDS011;4281;45.772;12.852;2022-12-29T06:54:50;20.63;;;18.47;;
8488;SDS011;4281;45.772;12.852;2022-12-29T06:57:18;21.37;;;19.07;;
8488;SDS011;4281;45.772;12.852;2022-12-29T06:59:45;22.23;;;19.83;;
8488;SDS011;4281;45.772;12.852;2022-12-29T07:02:16;22.30;;;19.60;;
8488;SDS011;4281;45.772;12.852;2022-12-29T07:04:46;24.50;;;20.40;;
8488;SDS011;4281;45.772;12.852;2022-12-29T07:07:13;23.87;;;19.60;;
8488;SDS011;4281;45.772;12.852;2022-12-29T07:09:42;22.23;;;19.90;;
8488;SDS011;4281;45.772;12.852;2022-12-29T07:12:10;22.83;;;20.20;;
8488;SDS011;4281;45.772;12.852;2022-12-29T07:14:38;23.90;;;20.33;;
8488;SDS011;4281;45.772;12.852;2022-12-29T07:17:08;23.90;;;20.80;;
8488;SDS011;4281;45.772;12.852;2022-12-29T07:19:38;22.23;;;19.40;;
8488;SDS011;4281;45.772;12.852;2022-12-29T07:22:05;25.47;;;19.60;;
8488;SDS011;4281;45.772;12.852;2022-12-29T07:24:33;22.07;;;19.67;;
8488;SDS011;4281;45.772;12.852;2022-12-29T07:27:01;23.87;;;20.17;;
8488;SDS011;4281;45.772;12.852;2022-12-29T07:29:29;24.27;;;20.33;;
8488;SDS011;4281;45.772;12.852;2022-12-29T07:31:57;23.77;;;21.17;;
8488;SDS011;4281;45.772;12.852;2022-12-29T07:34:25;26.33;;;22.63;;
8488;SDS011;4281;45.772;12.852;2022-12-29T07:36:54;27.50;;;22.43;;
8488;SDS011;4281;45.772;12.852;2022-12-29T07:39:22;31.93;;;25.27;;
8488;SDS011;4281;45.772;12.852;2022-12-29T07:41:50;30.80;;;24.33;;
8488;SDS011;4281;45.772;12.852;2022-12-29T07:44:17;30.37;;;23.67;;
8488;SDS011;4281;45.772;12.852;2022-12-29T07:46:46;28.53;;;23.73;;
8488;SDS011;4281;45.772;12.852;2022-12-29T07:49:22;29.50;;;24.53;;
8488;SDS011;4281;45.772;12.852;2022-12-29T07:51:51;28.57;;;23.37;;
8488;SDS011;4281;45.772;12.852;2022-12-29T07:54:20;27.83;;;22.77;;
8488;SDS011;4281;45.772;12.852;2022-12-29T07:56:49;27.30;;;23.37;;
8488;SDS011;4281;45.772;12.852;2022-12-29T07:59:17;27.93;;;22.30;;
8488;SDS011;4281;45.772;12.852;2022-12-29T08:01:45;28.97;;;23.33;;
8488;SDS011;4281;45.772;12.852;2022-12-29T08:04:14;30.93;;;25.70;;
8488;SDS011;4281;45.772;12.852;2022-12-29T08:06:43;30.63;;;24.13;;
8488;SDS011;4281;45.772;12.852;2022-12-29T08:09:11;31.83;;;24.37;;
8488;SDS011;4281;45.772;12.852;2022-12-29T08:11:48;27.80;;;23.03;;
8488;SDS011;4281;45.772;12.852;2022-12-29T08:14:16;29.80;;;23.23;;
8488;SDS011;4281;45.772;12.852;2022-12-29T08:16:44;30.30;;;25.03;;
8488;SDS011;4281;45.772;12.852;2022-12-29T08:19:12;28.17;;;23.47;;
8488;SDS011;4281;45.772;12.852;2022-12-29T08:21:40;29.63;;;23.63;;
8488;SDS011;4281;45.772;12.852;2022-12-29T08:24:08;28.40;;;24.03;;
8488;SDS011;4281;45.772;12.852;2022-12-29T08:26:36;31.37;;;23.77;;
8488;SDS011;4281;45.772;12.852;2022-12-29T08:29:06;28.60;;;22.77;;
8488;SDS011;4281;45.772;12.852;2022-12-29T08:31:34;29.73;;;25.00;;
8488;SDS011;4281;45.772;12.852;2022-12-29T08:34:02;29.70;;;24.87;;
8488;SDS011;4281;45.772;12.852;2022-12-29T08:36:30;28.47;;;24.27;;
8488;SDS011;4281;45.772;12.852;2022-12-29T08:38:58;32.13;;;26.37;;
8488;SDS011;4281;45.772;12.852;2022-12-29T08:41:26;33.00;;;27.20;;
8488;SDS011;4281;45.772;12.852;2022-12-29T08:43:54;32.93;;;27.40;;
8488;SDS011;4281;45.772;12.852;2022-12-29T08:46:23;34.67;;;26.63;;
8488;SDS011;4281;45.772;12.852;2022-12-29T08:48:51;35.33;;;28.77;;
8488;SDS011;4281;45.772;12.852;2022-12-29T08:51:20;32.73;;;25.97;;
8488;SDS011;4281;45.772;12.852;2022-12-29T08:53:50;31.77;;;26.57;;
8488;SDS011;4281;45.772;12.852;2022-12-29T08:56:18;34.43;;;26.37;;
8488;SDS011;4281;45.772;12.852;2022-12-29T08:58:46;31.20;;;25.03;;
8488;SDS011;4281;45.772;12.852;2022-12-29T09:01:14;33.20;;;26.97;;
8488;SDS011;4281;45.772;12.852;2022-12-29T09:03:43;31.17;;;25.77;;
8488;SDS011;4281;45.772;12.852;2022-12-29T09:06:31;30.17;;;24.43;;
8488;SDS011;4281;45.772;12.852;2022-12-29T09:09:05;29.67;;;24.50;;
8488;SDS011;4281;45.772;12.852;2022-12-29T09:11:33;28.93;;;24.80;;
8488;SDS011;4281;45.772;12.852;2022-12-29T09:14:01;31.13;;;25.10;;
8488;SDS011;4281;45.772;12.852;2022-12-29T09:16:29;30.30;;;24.50;;
8488;SDS011;4281;45.772;12.852;2022-12-29T09:18:58;32.27;;;25.13;;
8488;SDS011;4281;45.772;12.852;2022-12-29T09:21:26;30.97;;;24.93;;
8488;SDS011;4281;45.772;12.852;2022-12-29T09:23:55;28.23;;;25.17;;
8488;SDS011;4281;45.772;12.852;2022-12-29T09:26:23;30.47;;;25.33;;
8488;SDS011;4281;45.772;12.852;2022-12-29T09:28:51;27.87;;;23.53;;
8488;SDS011;4281;45.772;12.852;2022-12-29T09:31:19;28.87;;;24.30;;
8488;SDS011;4281;45.772;12.852;2022-12-29T09:33:48;30.00;;;25.97;;
8488;SDS011;4281;45.772;12.852;2022-12-29T09:36:17;29.03;;;23.97;;
8488;SDS011;4281;45.772;12.852;2022-12-29T09:38:45;28.80;;;23.73;;
8488;SDS011;4281;45.772;12.852;2022-12-29T09:41:13;28.90;;;24.30;;
8488;SDS011;4281;45.772;12.852;2022-12-29T09:43:56;28.33;;;23.63;;
8488;SDS011;4281;45.772;12.852;2022-12-29T09:46:31;27.60;;;23.67;;
8488;SDS011;4281;45.772;12.852;2022-12-29T09:49:05;31.10;;;25.10;;
8488;SDS011;4281;45.772;12.852;2022-12-29T09:51:37;29.20;;;24.97;;
8488;SDS011;4281;45.772;12.852;2022-12-29T09:54:13;29.57;;;25.50;;
8488;SDS011;4281;45.772;12.852;2022-12-29T09:56:50;28.47;;;23.90;;
8488;SDS011;4281;45.772;12.852;2022-12-29T09:59:19;31.13;;;25.17;;
8488;SDS011;4281;45.772;12.852;2022-12-29T10:01:51;29.07;;;24.03;;
8488;SDS011;4281;45.772;12.852;2022-12-29T10:04:25;27.83;;;24.03;;
8488;SDS011;4281;45.772;12.852;2022-12-29T10:06:58;27.40;;;24.10;;
8488;SDS011;4281;45.772;12.852;2022-12-29T10:09:52;28.57;;;24.27;;
8488;SDS011;4281;45.772;12.852;2022-12-29T10:12:25;28.20;;;23.83;;
8488;SDS011;4281;45.772;12.852;2022-12-29T10:14:58;28.30;;;24.20;;
8488;SDS011;4281;45.772;12.852;2022-12-29T10:17:34;29.40;;;23.70;;
8488;SDS011;4281;45.772;12.852;2022-12-29T10:20:19;28.97;;;25.57;;
8488;SDS011;4281;45.772;12.852;2022-12-29T10:23:01;30.53;;;26.07;;
8488;SDS011;4281;45.772;12.852;2022-12-29T10:25:39;29.13;;;24.80;;
8488;SDS011;4281;45.772;12.852;2022-12-29T10:28:10;30.73;;;26.10;;
8488;SDS011;4281;45.772;12.852;2022-12-29T10:30:45;29.80;;;25.10;;
8488;SDS011;4281;45.772;12.852;2022-12-29T10:33:14;28.83;;;25.67;;
8488;SDS011;4281;45.772;12.852;2022-12-29T10:35:45;30.57;;;25.10;;
8488;SDS011;4281;45.772;12.852;2022-12-29T10:38:17;30.20;;;24.97;;
8488;SDS011;4281;45.772;12.852;2022-12-29T10:40:51;28.50;;;23.83;;
8488;SDS011;4281;45.772;12.852;2022-12-29T10:43:24;29.70;;;24.80;;
8488;SDS011;4281;45.772;12.852;2022-12-29T10:45:53;29.53;;;25.27;;
8488;SDS011;4281;45.772;12.852;2022-12-29T10:48:23;29.57;;;23.97;;
8488;SDS011;4281;45.772;12.852;2022-12-29T10:50:58;30.47;;;25.47;;
8488;SDS011;4281;45.772;12.852;2022-12-29T10:53:30;29.40;;;25.50;;
8488;SDS011;4281;45.772;12.852;2022-12-29T10:56:01;31.00;;;26.37;;
8488;SDS011;4281;45.772;12.852;2022-12-29T10:58:32;27.47;;;23.40;;
8488;SDS011;4281;45.772;12.852;2022-12-29T11:01:00;33.77;;;27.00;;
8488;SDS011;4281;45.772;12.852;2022-12-29T11:03:34;31.27;;;27.40;;
8488;SDS011;4281;45.772;12.852;2022-12-29T11:06:12;31.13;;;26.70;;
8488;SDS011;4281;45.772;12.852;2022-12-29T11:08:48;31.40;;;26.80;;
8488;SDS011;4281;45.772;12.852;2022-12-29T11:11:24;34.17;;;27.30;;
8488;SDS011;4281;45.772;12.852;2022-12-29T11:13:56;30.03;;;24.80;;
8488;SDS011;4281;45.772;12.852;2022-12-29T11:16:29;30.53;;;26.00;;
8488;SDS011;4281;45.772;12.852;2022-12-29T11:19:01;28.77;;;24.27;;
8488;SDS011;4281;45.772;12.852;2022-12-29T11:21:33;29.33;;;24.47;;
8488;SDS011;4281;45.772;12.852;2022-12-29T11:24:18;26.97;;;23.40;;
8488;SDS011;4281;45.772;12.852;2022-12-29T11:26:48;26.37;;;23.53;;
8488;SDS011;4281;45.772;12.852;2022-12-29T11:29:23;26.73;;;23.50;;
8488;SDS011;4281;45.772;12.852;2022-12-29T11:31:54;26.20;;;22.67;;
8488;SDS011;4281;45.772;12.852;2022-12-29T11:34:24;28.40;;;22.97;;
8488;SDS011;4281;45.772;12.852;2022-12-29T11:36:58;27.33;;;22.30;;
8488;SDS011;4281;45.772;12.852;2022-12-29T11:39:32;25.77;;;22.43;;
8488;SDS011;4281;45.772;12.852;2022-12-29T11:42:01;26.03;;;22.80;;
8488;SDS011;4281;45.772;12.852;2022-12-29T11:44:32;25.87;;;23.00;;
8488;SDS011;4281;45.772;12.852;2022-12-29T11:47:04;26.13;;;23.30;;
8488;SDS011;4281;45.772;12.852;2022-12-29T11:52:14;25.20;;;22.50;;
8488;SDS011;4281;45.772;12.852;2022-12-29T11:54:43;26.00;;;22.17;;
8488;SDS011;4281;45.772;12.852;2022-12-29T11:57:12;25.50;;;21.37;;
8488;SDS011;4281;45.772;12.852;2022-12-29T11:59:41;23.93;;;21.33;;
8488;SDS011;4281;45.772;12.852;2022-12-29T12:05:10;21.73;;;19.37;;
8488;SDS011;4281;45.772;12.852;2022-12-29T12:07:41;22.53;;;19.60;;
8488;SDS011;4281;45.772;12.852;2022-12-29T12:10:15;21.17;;;18.80;;
8488;SDS011;4281;45.772;12.852;2022-12-29T12:12:47;23.17;;;19.07;;
8488;SDS011;4281;45.772;12.852;2022-12-29T12:15:22;22.00;;;18.20;;
8488;SDS011;4281;45.772;12.852;2022-12-29T12:17:53;22.23;;;19.43;;
8488;SDS011;4281;45.772;12.852;2022-12-29T12:20:25;20.67;;;18.47;;
8488;SDS011;4281;45.772;12.852;2022-12-29T12:22:58;21.50;;;17.93;;
8488;SDS011;4281;45.772;12.852;2022-12-29T12:25:37;20.63;;;18.27;;
8488;SDS011;4281;45.772;12.852;2022-12-29T12:28:09;22.17;;;18.23;;
8488;SDS011;4281;45.772;12.852;2022-12-29T12:30:40;21.17;;;18.40;;
8488;SDS011;4281;45.772;12.852;2022-12-29T12:33:13;19.97;;;17.43;;
8488;SDS011;4281;45.772;12.852;2022-12-29T12:35:44;21.47;;;18.80;;
8488;SDS011;4281;45.772;12.852;2022-12-29T12:38:20;20.97;;;17.77;;
8488;SDS011;4281;45.772;12.852;2022-12-29T12:41:02;26.13;;;22.53;;
8488;SDS011;4281;45.772;12.852;2022-12-29T12:43:38;22.87;;;20.30;;
8488;SDS011;4281;45.772;12.852;2022-12-29T12:46:12;24.97;;;21.67;;
8488;SDS011;4281;45.772;12.852;2022-12-29T12:48:51;23.57;;;20.77;;
8488;SDS011;4281;45.772;12.852;2022-12-29T12:51:29;23.03;;;19.73;;
8488;SDS011;4281;45.772;12.852;2022-12-29T12:54:03;21.67;;;19.37;;
8488;SDS011;4281;45.772;12.852;2022-12-29T12:56:46;21.67;;;19.07;;
8488;SDS011;4281;45.772;12.852;2022-12-29T12:59:22;22.13;;;19.03;;
8488;SDS011;4281;45.772;12.852;2022-12-29T13:02:00;21.03;;;18.77;;
8488;SDS011;4281;45.772;12.852;2022-12-29T13:07:28;21.70;;;18.93;;
8488;SDS011;4281;45.772;12.852;2022-12-29T13:10:14;21.90;;;18.63;;
8488;SDS011;4281;45.772;12.852;2022-12-29T13:12:49;22.90;;;18.73;;
8488;SDS011;4281;45.772;12.852;2022-12-29T13:15:26;21.50;;;18.07;;
8488;SDS011;4281;45.772;12.852;2022-12-29T13:18:06;22.53;;;19.33;;
8488;SDS011;4281;45.772;12.852;2022-12-29T13:20:41;21.00;;;18.67;;
8488;SDS011;4281;45.772;12.852;2022-12-29T13:23:14;21.53;;;18.10;;
8488;SDS011;4281;45.772;12.852;2022-12-29T13:25:47;21.77;;;19.03;;
8488;SDS011;4281;45.772;12.852;2022-12-29T13:28:20;22.17;;;19.00;;
8488;SDS011;4281;45.772;12.852;2022-12-29T13:30:53;23.33;;;19.97;;
8488;SDS011;4281;45.772;12.852;2022-12-29T13:33:27;23.37;;;19.80;;
8488;SDS011;4281;45.772;12.852;2022-12-29T13:35:59;21.50;;;19.07;;
8488;SDS011;4281;45.772;12.852;2022-12-29T13:38:29;21.87;;;19.50;;
8488;SDS011;4281;45.772;12.852;2022-12-29T13:41:01;22.80;;;19.80;;
8488;SDS011;4281;45.772;12.852;2022-12-29T13:43:35;23.83;;;19.90;;
8488;SDS011;4281;45.772;12.852;2022-12-29T13:46:07;22.00;;;19.53;;
8488;SDS011;4281;45.772;12.852;2022-12-29T13:48:39;23.50;;;20.07;;
8488;SDS011;4281;45.772;12.852;2022-12-29T13:51:11;24.47;;;20.97;;
8488;SDS011;4281;45.772;12.852;2022-12-29T13:53:42;22.93;;;20.10;;
8488;SDS011;4281;45.772;12.852;2022-12-29T13:56:19;22.83;;;19.80;;
8488;SDS011;4281;45.772;12.852;2022-12-29T13:58:53;23.83;;;20.83;;
8488;SDS011;4281;45.772;12.852;2022-12-29T14:01:22;23.77;;;19.23;;
8488;SDS011;4281;45.772;12.852;2022-12-29T14:03:55;24.27;;;21.10;;
8488;SDS011;4281;45.772;12.852;2022-12-29T14:06:24;23.27;;;19.67;;
8488;SDS011;4281;45.772;12.852;2022-12-29T14:08:54;24.33;;;21.60;;
8488;SDS011;4281;45.772;12.852;2022-12-29T14:11:23;24.13;;;20.37;;
8488;SDS011;4281;45.772;12.852;2022-12-29T14:13:59;26.47;;;21.23;;
8488;SDS011;4281;45.772;12.852;2022-12-29T14:16:28;25.03;;;22.10;;
8488;SDS011;4281;45.772;12.852;2022-12-29T14:19:03;23.63;;;21.07;;
8488;SDS011;4281;45.772;12.852;2022-12-29T14:21:33;26.47;;;21.40;;
8488;SDS011;4281;45.772;12.852;2022-12-29T14:33:18;25.90;;;20.67;;
8488;SDS011;4281;45.772;12.852;2022-12-29T14:35:46;22.77;;;20.13;;
8488;SDS011;4281;45.772;12.852;2022-12-29T14:38:19;23.43;;;20.93;;
8488;SDS011;4281;45.772;12.852;2022-12-29T14:40:49;25.60;;;21.87;;
8488;SDS011;4281;45.772;12.852;2022-12-29T14:43:19;24.37;;;21.60;;
8488;SDS011;4281;45.772;12.852;2022-12-29T14:45:53;24.20;;;21.63;;
8488;SDS011;4281;45.772;12.852;2022-12-29T14:51:26;24.37;;;21.77;;
8488;SDS011;4281;45.772;12.852;2022-12-29T14:53:56;23.47;;;20.93;;
8488;SDS011;4281;45.772;12.852;2022-12-29T14:56:25;22.93;;;20.43;;
8488;SDS011;4281;45.772;12.852;2022-12-29T14:58:56;24.57;;;21.73;;
8488;SDS011;4281;45.772;12.852;2022-12-29T15:01:30;22.77;;;20.03;;
8488;SDS011;4281;45.772;12.852;2022-12-29T15:04:15;22.40;;;20.10;;
8488;SDS011;4281;45.772;12.852;2022-12-29T15:06:45;24.47;;;21.20;;
8488;SDS011;4281;45.772;12.852;2022-12-29T15:09:17;23.50;;;20.93;;
8488;SDS011;4281;45.772;12.852;2022-12-29T15:11:51;24.87;;;21.13;;
8488;SDS011;4281;45.772;12.852;2022-12-29T15:14:33;24.33;;;21.73;;
8488;SDS011;4281;45.772;12.852;2022-12-29T15:17:10;25.73;;;22.50;;
8488;SDS011;4281;45.772;12.852;2022-12-29T15:19:39;24.77;;;22.10;;
8488;SDS011;4281;45.772;12.852;2022-12-29T15:22:07;23.93;;;21.30;;
8488;SDS011;4281;45.772;12.852;2022-12-29T15:24:38;24.60;;;22.00;;